createdAt,value
2023-05-08T00:00:12.464Z,76.82
2023-05-08T00:02:43.828Z,76.08
2023-05-08T00:05:14.250Z,76.71
2023-05-08T00:07:44.333Z,77.10
2023-05-08T00:10:15.171Z,76.72
2023-05-08T00:12:45.503Z,76.22
2023-05-08T00:15:15.999Z,76.26
2023-05-08T00:17:46.168Z,78.48
2023-05-08T00:20:16.584Z,76.39
2023-05-08T00:22:46.632Z,76.62
2023-05-08T00:25:16.705Z,76.42
2023-05-08T00:27:46.829Z,76.68
2023-05-08T00:30:17.275Z,75.77
2023-05-08T00:32:48.477Z,77.54
2023-05-08T00:35:19.104Z,78.42
2023-05-08T00:37:49.215Z,78.73
2023-05-08T00:40:19.659Z,75.77
2023-05-08T00:42:49.772Z,75.76
2023-05-08T00:45:20.119Z,74.77
2023-05-08T00:47:50.258Z,74.01
2023-05-08T00:50:21.202Z,73.93
2023-05-08T00:52:51.963Z,73.28
2023-05-08T00:55:22.612Z,73.60
2023-05-08T00:57:54.078Z,72.83
2023-05-08T01:00:24.587Z,72.77
2023-05-08T01:02:54.889Z,72.60
2023-05-08T01:05:25.349Z,72.08
2023-05-08T01:07:56.056Z,71.63
2023-05-08T01:10:27.681Z,71.40
2023-05-08T01:13:03.885Z,71.40
2023-05-08T01:15:41.829Z,71.47
2023-05-08T01:18:11.809Z,71.74
2023-05-08T01:20:55.180Z,70.93
2023-05-08T01:23:50.334Z,70.56
2023-05-08T01:26:36.535Z,70.65
2023-05-08T01:29:25.515Z,70.89
2023-05-08T01:32:07.648Z,70.21
2023-05-08T01:34:39.765Z,70.82
2023-05-08T01:37:13.083Z,69.89
2023-05-08T01:39:49.227Z,70.59
2023-05-08T01:42:35.740Z,69.91
2023-05-08T01:45:09.444Z,69.70
2023-05-08T01:47:40.256Z,69.87
2023-05-08T01:50:15.838Z,70.01
2023-05-08T01:52:52.195Z,70.17
2023-05-08T01:55:26.213Z,69.98
2023-05-08T01:57:59.709Z,70.10
2023-05-08T02:00:30.033Z,69.31
2023-05-08T02:03:01.940Z,69.46
2023-05-08T02:05:32.925Z,69.19
2023-05-08T02:08:04.324Z,69.18
2023-05-08T02:10:35.063Z,69.01
2023-05-08T02:13:06.087Z,68.91
2023-05-08T02:15:38.048Z,68.86
2023-05-08T02:18:10.389Z,68.86
2023-05-08T02:20:41.285Z,68.56
2023-05-08T02:23:11.795Z,68.39
2023-05-08T02:25:42.077Z,68.13
2023-05-08T02:28:12.775Z,67.99
2023-05-08T02:30:43.986Z,68.56
2023-05-08T02:33:19.372Z,67.92
2023-05-08T02:36:00.748Z,67.72
2023-05-08T02:38:32.056Z,67.69
2023-05-08T02:41:04.892Z,67.33
2023-05-08T02:43:35.167Z,67.33
2023-05-08T02:46:16.897Z,67.52
2023-05-08T02:49:01.088Z,67.26
2023-05-08T02:51:41.340Z,66.96
2023-05-08T02:54:28.423Z,67.16
2023-05-08T02:57:05.358Z,66.89
2023-05-08T02:59:41.105Z,66.83
2023-05-08T03:02:27.455Z,66.70
2023-05-08T03:05:01.512Z,66.65
2023-05-08T03:07:32.832Z,66.54
2023-05-08T03:10:05.755Z,66.51
2023-05-08T03:12:41.337Z,66.57
2023-05-08T03:15:16.052Z,66.19
2023-05-08T03:17:47.724Z,66.28
2023-05-08T03:20:19.827Z,66.04
2023-05-08T03:22:50.744Z,65.66
2023-05-08T03:25:22.225Z,65.77
2023-05-08T03:27:54.120Z,65.80
2023-05-08T03:30:25.762Z,65.51
2023-05-08T03:33:08.858Z,65.57
2023-05-08T03:35:40.784Z,65.77
2023-05-08T03:38:12.468Z,65.72
2023-05-08T03:40:45.910Z,65.43
2023-05-08T03:43:17.182Z,65.60
2023-05-08T03:45:48.400Z,65.24
2023-05-08T03:48:20.030Z,65.21
2023-05-08T03:50:50.838Z,65.20
2023-05-08T03:53:21.399Z,65.02
2023-05-08T03:55:52.077Z,65.01
2023-05-08T03:58:44.799Z,64.89
2023-05-08T04:01:41.964Z,65.16
2023-05-08T04:04:25.763Z,65.04
2023-05-08T04:07:05.522Z,64.80
2023-05-08T04:09:45.950Z,64.95
2023-05-08T04:12:15.975Z,64.64
2023-05-08T04:14:50.147Z,64.70
2023-05-08T04:17:25.356Z,64.95
2023-05-08T04:20:05.401Z,64.83
2023-05-08T04:22:37.283Z,64.95
2023-05-08T04:25:09.349Z,64.84
2023-05-08T04:27:39.693Z,64.64
2023-05-08T04:30:11.121Z,64.59
2023-05-08T04:32:45.490Z,64.44
2023-05-08T04:35:18.187Z,64.40
2023-05-08T04:37:49.862Z,64.29
2023-05-08T04:40:21.976Z,64.40
2023-05-08T04:42:52.367Z,64.29
2023-05-08T04:45:23.593Z,64.15
2023-05-08T04:47:54.290Z,64.00
2023-05-08T04:50:24.483Z,64.08
2023-05-08T04:52:54.619Z,63.76
2023-05-08T04:55:24.854Z,63.87
2023-05-08T04:57:55.522Z,63.68
2023-05-08T05:00:25.579Z,63.74
2023-05-08T05:02:55.702Z,63.51
2023-05-08T05:05:25.853Z,63.47
2023-05-08T05:07:55.587Z,63.20
2023-05-08T05:10:25.357Z,63.11
2023-05-08T05:12:55.474Z,62.97
2023-05-08T05:15:25.283Z,62.70
2023-05-08T05:17:55.578Z,62.81
2023-05-08T05:20:25.740Z,62.59
2023-05-08T05:22:55.946Z,62.66
2023-05-08T05:25:27.043Z,62.42
2023-05-08T05:27:56.697Z,62.37
2023-05-08T05:30:27.963Z,62.29
2023-05-08T05:32:58.037Z,62.19
2023-05-08T05:35:27.839Z,62.29
2023-05-08T05:37:59.400Z,62.12
2023-05-08T05:40:29.158Z,61.96
2023-05-08T05:42:58.916Z,62.11
2023-05-08T05:45:29.788Z,61.94
2023-05-08T05:48:00.987Z,61.87
2023-05-08T05:50:32.524Z,61.77
2023-05-08T05:53:02.830Z,62.04
2023-05-08T05:55:32.921Z,61.89
2023-05-08T05:58:03.077Z,61.94
2023-05-08T06:00:33.207Z,61.91
2023-05-08T06:03:04.217Z,61.85
2023-05-08T06:05:34.076Z,61.86
2023-05-08T06:08:04.215Z,61.87
2023-05-08T06:10:34.174Z,61.37
2023-05-08T06:13:04.280Z,61.66
2023-05-08T06:15:35.587Z,61.88
2023-05-08T06:18:06.316Z,61.63
2023-05-08T06:20:36.195Z,61.96
2023-05-08T06:23:06.561Z,61.58
2023-05-08T06:25:36.308Z,61.49
2023-05-08T06:28:07.632Z,61.70
2023-05-08T06:30:37.360Z,61.81
2023-05-08T06:33:07.153Z,61.39
2023-05-08T06:35:37.590Z,61.23
2023-05-08T06:38:07.410Z,61.09
2023-05-08T06:40:37.288Z,61.04
2023-05-08T06:43:07.056Z,60.87
2023-05-08T06:45:36.832Z,60.74
2023-05-08T06:48:06.803Z,60.47
2023-05-08T06:50:40.374Z,60.18
2023-05-08T06:53:10.534Z,60.40
2023-05-08T06:55:40.327Z,60.44
2023-05-08T06:58:10.050Z,60.20
2023-05-08T07:00:39.870Z,59.94
2023-05-08T07:03:09.629Z,59.83
2023-05-08T07:05:39.437Z,59.63
2023-05-08T07:08:09.710Z,59.51
2023-05-08T07:10:39.424Z,59.30
2023-05-08T07:13:09.244Z,59.29
2023-05-08T07:15:40.083Z,58.92
2023-05-08T07:18:09.906Z,59.15
2023-05-08T07:20:39.637Z,58.85
2023-05-08T07:23:09.500Z,58.95
2023-05-08T07:25:39.224Z,58.85
2023-05-08T07:28:09.643Z,58.49
2023-05-08T07:30:39.772Z,58.62
2023-05-08T07:33:09.994Z,58.42
2023-05-08T07:35:43.153Z,58.35
2023-05-08T07:38:13.229Z,58.00
2023-05-08T07:40:43.585Z,58.27
2023-05-08T07:43:14.556Z,58.09
2023-05-08T07:45:44.642Z,58.09
2023-05-08T07:48:14.785Z,57.85
2023-05-08T07:50:45.949Z,57.89
2023-05-08T07:53:16.043Z,57.81
2023-05-08T07:55:46.253Z,57.87
2023-05-08T07:58:16.619Z,57.90
2023-05-08T08:00:46.619Z,57.22
2023-05-08T08:03:16.764Z,57.68
2023-05-08T08:05:47.456Z,57.38
2023-05-08T08:08:17.767Z,57.54
2023-05-08T08:10:47.510Z,57.21
2023-05-08T08:13:18.526Z,56.86
2023-05-08T08:15:48.209Z,57.24
2023-05-08T08:18:18.072Z,56.80
2023-05-08T08:20:48.262Z,56.69
2023-05-08T08:23:18.728Z,56.79
2023-05-08T08:25:48.494Z,56.82
2023-05-08T08:28:19.016Z,57.10
2023-05-08T08:30:48.741Z,56.74
2023-05-08T08:33:19.201Z,56.74
2023-05-08T08:35:49.119Z,57.19
2023-05-08T08:38:18.863Z,56.85
2023-05-08T08:40:49.176Z,57.00
2023-05-08T08:43:19.246Z,56.63
2023-05-08T08:45:49.440Z,56.63
2023-05-08T08:48:20.541Z,56.99
2023-05-08T08:50:52.547Z,56.78
2023-05-08T08:53:33.311Z,57.21
2023-05-08T08:56:04.264Z,57.00
2023-05-08T08:58:39.008Z,56.73
2023-05-08T09:01:09.864Z,56.90
2023-05-08T09:03:39.596Z,57.24
2023-05-08T09:06:09.868Z,57.14
2023-05-08T09:08:39.933Z,56.86
2023-05-08T09:11:10.268Z,58.42
2023-05-08T09:13:39.912Z,59.12
2023-05-08T09:16:09.803Z,59.81
2023-05-08T09:18:39.523Z,60.27
2023-05-08T09:21:09.341Z,60.50
2023-05-08T09:23:55.661Z,61.20
2023-05-08T09:26:28.931Z,61.02
2023-05-08T09:29:27.929Z,62.30
2023-05-08T09:31:57.818Z,62.62
2023-05-08T09:34:29.251Z,62.57
2023-05-08T09:37:07.714Z,62.23
2023-05-08T09:39:37.461Z,62.15
2023-05-08T09:42:07.419Z,61.91
2023-05-08T09:44:47.197Z,61.92
2023-05-08T09:47:18.364Z,61.12
2023-05-08T09:50:06.457Z,61.85
2023-05-08T09:52:37.842Z,61.79
2023-05-08T09:55:09.489Z,62.36
2023-05-08T09:57:40.494Z,62.50
2023-05-08T10:00:12.277Z,62.37
2023-05-08T10:02:43.198Z,62.41
2023-05-08T10:05:33.740Z,63.21
2023-05-08T10:08:21.712Z,63.34
2023-05-08T10:10:51.865Z,63.19
2023-05-08T10:13:22.480Z,63.69
2023-05-08T10:15:55.984Z,63.95
2023-05-08T10:18:26.771Z,64.21
2023-05-08T10:20:57.413Z,64.21
2023-05-08T10:23:27.870Z,64.81
2023-05-08T10:26:01.382Z,64.67
2023-05-08T10:28:58.281Z,64.63
2023-05-08T10:31:32.826Z,64.34
2023-05-08T10:34:03.647Z,64.95
2023-05-08T10:36:37.139Z,65.54
2023-05-08T10:39:07.926Z,65.92
2023-05-08T10:41:38.130Z,65.74
2023-05-08T10:44:08.578Z,65.90
2023-05-08T10:46:54.519Z,66.08
2023-05-08T10:49:32.156Z,66.74
2023-05-08T10:52:11.198Z,65.75
2023-05-08T10:55:07.304Z,65.51
2023-05-08T10:57:37.676Z,65.50
2023-05-08T11:00:08.136Z,64.83
2023-05-08T11:02:39.683Z,64.64
2023-05-08T11:05:19.365Z,64.52
2023-05-08T11:07:56.926Z,64.49
2023-05-08T11:10:33.680Z,64.23
2023-05-08T11:13:03.805Z,64.36
2023-05-08T11:15:40.709Z,64.40
2023-05-08T11:18:12.388Z,64.06
2023-05-08T11:20:43.192Z,64.01
2023-05-08T11:23:29.516Z,64.07
2023-05-08T11:26:03.757Z,63.85
2023-05-08T11:28:34.702Z,64.07
2023-05-08T11:31:05.719Z,63.89
2023-05-08T11:33:38.882Z,63.63
2023-05-08T11:36:26.454Z,63.93
2023-05-08T11:39:10.366Z,63.28
2023-05-08T11:41:43.016Z,63.48
2023-05-08T11:44:21.282Z,63.01
2023-05-08T11:46:54.998Z,63.51
2023-05-08T11:49:29.147Z,63.41
2023-05-08T11:52:00.421Z,63.34
2023-05-08T11:54:32.010Z,62.76
2023-05-08T11:57:03.000Z,63.11
2023-05-08T11:59:38.113Z,63.29
2023-05-08T12:02:09.588Z,62.99
2023-05-08T12:04:47.036Z,63.31
2023-05-08T12:07:17.555Z,63.42
2023-05-08T12:09:47.731Z,63.43
2023-05-08T12:12:17.561Z,63.76
2023-05-08T12:14:50.821Z,63.54
2023-05-08T12:17:20.929Z,63.83
2023-05-08T12:19:55.502Z,63.48
2023-05-08T12:22:25.346Z,64.17
2023-05-08T12:24:55.600Z,64.39
2023-05-08T12:27:26.230Z,64.35
2023-05-08T12:29:56.037Z,64.37
2023-05-08T12:32:27.725Z,64.47
2023-05-08T12:34:58.932Z,64.97
2023-05-08T12:37:28.995Z,64.80
2023-05-08T12:39:58.767Z,64.97
2023-05-08T12:42:44.337Z,65.13
2023-05-08T12:45:24.548Z,64.83
2023-05-08T12:47:55.023Z,65.00
2023-05-08T12:50:26.972Z,65.71
2023-05-08T12:53:02.832Z,65.81
2023-05-08T12:55:33.338Z,65.68
2023-05-08T12:58:04.842Z,65.67
2023-05-08T13:00:41.922Z,65.46
2023-05-08T13:03:13.994Z,65.03
2023-05-08T13:05:47.618Z,64.58
2023-05-08T13:08:17.657Z,64.56
2023-05-08T13:10:51.740Z,65.15
2023-05-08T13:13:22.487Z,64.69
2023-05-08T13:15:52.778Z,64.20
2023-05-08T13:18:23.410Z,64.46
2023-05-08T13:20:53.804Z,64.80
2023-05-08T13:23:24.238Z,65.41
2023-05-08T13:25:54.845Z,65.73
2023-05-08T13:28:24.899Z,65.59
2023-05-08T13:30:55.037Z,65.66
2023-05-08T13:33:25.564Z,65.35
2023-05-08T13:35:56.541Z,65.25
2023-05-08T13:38:26.791Z,64.98
2023-05-08T13:40:56.777Z,65.32
2023-05-08T13:43:26.839Z,65.41
2023-05-08T13:45:57.020Z,64.73
2023-05-08T13:48:27.336Z,64.79
2023-05-08T13:50:57.314Z,64.53
2023-05-08T13:53:27.395Z,64.69
2023-05-08T13:55:57.494Z,65.19
2023-05-08T13:58:27.863Z,64.49
2023-05-08T14:00:57.997Z,61.53
2023-05-08T14:03:28.072Z,58.63
2023-05-08T14:05:58.075Z,57.18
2023-05-08T14:08:28.335Z,54.58
2023-05-08T14:10:58.395Z,53.26
2023-05-08T14:13:28.399Z,53.59
2023-05-08T14:15:58.484Z,53.28
2023-05-08T14:18:28.730Z,51.45
2023-05-08T14:20:59.063Z,51.03
2023-05-08T14:23:29.509Z,50.00
2023-05-08T14:25:59.566Z,48.57
2023-05-08T14:28:29.632Z,48.51
2023-05-08T14:30:59.737Z,48.15
2023-05-08T14:33:29.933Z,47.58
2023-05-08T14:36:00.147Z,47.29
2023-05-08T14:38:30.301Z,46.49
2023-05-08T14:41:03.106Z,47.02
2023-05-08T14:43:34.705Z,46.59
2023-05-08T14:46:05.007Z,46.68
2023-05-08T14:48:56.969Z,45.65
2023-05-08T14:51:28.094Z,45.00
2023-05-08T14:54:16.393Z,45.13
2023-05-08T14:56:47.652Z,44.99
2023-05-08T14:59:18.081Z,44.42
2023-05-08T15:01:48.737Z,44.22
2023-05-08T15:04:18.866Z,44.34
2023-05-08T15:06:49.190Z,43.60
2023-05-08T15:09:19.343Z,43.69
2023-05-08T15:11:49.447Z,43.50
2023-05-08T15:14:19.654Z,42.73
2023-05-08T15:16:50.041Z,43.09
2023-05-08T15:19:20.490Z,42.98
2023-05-08T15:21:50.684Z,42.79
2023-05-08T15:24:20.719Z,44.33
2023-05-08T15:26:50.863Z,43.80
2023-05-08T15:29:20.926Z,43.84
2023-05-08T15:31:51.209Z,44.24
2023-05-08T15:34:21.705Z,43.46
2023-05-08T15:36:52.321Z,43.61
2023-05-08T15:39:22.502Z,43.47
2023-05-08T15:41:52.602Z,43.31
2023-05-08T15:44:23.614Z,43.65
2023-05-08T15:46:54.785Z,43.45
2023-05-08T15:49:45.218Z,43.49
2023-05-08T15:52:19.951Z,43.53
2023-05-08T15:54:50.484Z,43.51
2023-05-08T15:57:20.536Z,42.73
2023-05-08T15:59:50.867Z,42.98
2023-05-08T16:02:21.026Z,42.69
2023-05-08T16:04:51.415Z,42.77
2023-05-08T16:07:21.447Z,42.80
2023-05-08T16:09:51.724Z,42.84
2023-05-08T16:12:21.740Z,42.76
2023-05-08T16:14:51.821Z,42.29
2023-05-08T16:17:21.857Z,42.88
2023-05-08T16:19:52.027Z,42.46
2023-05-08T16:22:22.156Z,42.92
2023-05-08T16:24:54.471Z,42.74
2023-05-08T16:27:24.752Z,42.50
2023-05-08T16:29:54.844Z,42.38
2023-05-08T16:32:25.029Z,42.55
2023-05-08T16:34:55.302Z,42.85
2023-05-08T16:37:25.410Z,42.88
2023-05-08T16:39:55.377Z,42.39
2023-05-08T16:42:25.383Z,42.43
2023-05-08T16:44:55.433Z,42.84
2023-05-08T16:47:26.030Z,42.26
2023-05-08T16:49:56.756Z,42.28
2023-05-08T16:52:27.341Z,42.36
2023-05-08T16:54:57.330Z,42.96
2023-05-08T16:57:28.777Z,42.62
2023-05-08T16:59:59.070Z,43.05
2023-05-08T17:02:29.315Z,42.75
2023-05-08T17:04:59.690Z,42.88
2023-05-08T17:07:29.737Z,43.31
2023-05-08T17:09:59.841Z,43.01
2023-05-08T17:12:33.156Z,42.70
2023-05-08T17:15:03.570Z,42.65
2023-05-08T17:17:33.860Z,42.59
2023-05-08T17:20:04.259Z,42.85
2023-05-08T17:22:34.248Z,42.96
2023-05-08T17:25:04.369Z,43.19
2023-05-08T17:27:37.226Z,43.15
2023-05-08T17:30:08.191Z,43.28
2023-05-08T17:32:38.527Z,42.91
2023-05-08T17:35:08.784Z,42.86
2023-05-08T17:37:39.086Z,43.22
2023-05-08T17:40:09.506Z,42.90
2023-05-08T17:42:40.150Z,42.80
2023-05-08T17:45:10.431Z,43.21
2023-05-08T17:47:41.618Z,43.22
2023-05-08T17:50:12.780Z,43.44
2023-05-08T17:52:42.952Z,43.20
2023-05-08T17:55:13.021Z,43.26
2023-05-08T17:57:43.118Z,43.02
2023-05-08T18:00:13.721Z,43.13
2023-05-08T18:02:43.905Z,43.08
2023-05-08T18:05:13.971Z,43.09
2023-05-08T18:07:44.128Z,42.91
2023-05-08T18:10:14.339Z,43.12
2023-05-08T18:13:08.721Z,42.85
2023-05-08T18:15:41.572Z,43.08
2023-05-08T18:18:11.905Z,42.84
2023-05-08T18:20:41.940Z,43.02
2023-05-08T18:23:11.999Z,42.67
2023-05-08T18:25:42.119Z,42.57
2023-05-08T18:28:14.893Z,42.93
2023-05-08T18:30:45.285Z,42.75
2023-05-08T18:33:15.792Z,42.24
2023-05-08T18:36:01.362Z,42.29
2023-05-08T18:38:47.490Z,42.84
2023-05-08T18:41:40.581Z,42.44
2023-05-08T18:44:11.566Z,42.65
2023-05-08T18:47:03.597Z,42.60
2023-05-08T18:49:59.206Z,42.37
2023-05-08T18:52:29.811Z,42.45
2023-05-08T18:54:59.947Z,42.37
2023-05-08T18:57:29.991Z,42.15
2023-05-08T19:00:12.841Z,42.64
2023-05-08T19:02:43.045Z,42.82
2023-05-08T19:05:13.182Z,42.17
2023-05-08T19:07:43.837Z,42.52
2023-05-08T19:10:14.387Z,42.44
2023-05-08T19:12:44.980Z,42.39
2023-05-08T19:15:15.563Z,42.64
2023-05-08T19:17:46.539Z,42.47
2023-05-08T19:20:16.915Z,42.45
2023-05-08T19:22:48.517Z,42.68
2023-05-08T19:25:19.037Z,42.59
2023-05-08T19:27:49.233Z,42.52
2023-05-08T19:30:19.286Z,42.42
2023-05-08T19:32:49.811Z,42.36
2023-05-08T19:35:19.915Z,42.25
2023-05-08T19:37:49.862Z,42.28
2023-05-08T19:40:20.247Z,42.22
2023-05-08T19:42:50.602Z,42.27
2023-05-08T19:45:23.675Z,42.19
2023-05-08T19:47:54.209Z,42.24
2023-05-08T19:50:25.105Z,42.07
2023-05-08T19:52:55.127Z,42.50
2023-05-08T19:55:25.194Z,42.10
2023-05-08T19:57:55.299Z,41.88
2023-05-08T20:00:25.310Z,42.29
2023-05-08T20:02:55.498Z,42.38
2023-05-08T20:05:26.129Z,42.04
2023-05-08T20:07:56.125Z,41.90
2023-05-08T20:10:26.214Z,42.01
2023-05-08T20:12:59.234Z,41.73
2023-05-08T20:15:45.365Z,41.99
2023-05-08T20:18:15.831Z,41.91
2023-05-08T20:20:47.421Z,42.12
2023-05-08T20:23:52.552Z,42.16
2023-05-08T20:26:43.631Z,42.03
2023-05-08T20:29:24.569Z,42.16
2023-05-08T20:31:58.008Z,42.06
2023-05-08T20:34:49.134Z,42.11
2023-05-08T20:37:54.402Z,42.10
2023-05-08T20:40:39.834Z,42.06
2023-05-08T20:43:13.698Z,42.03
2023-05-08T20:45:52.905Z,41.93
2023-05-08T20:49:03.412Z,41.79
2023-05-08T20:51:34.027Z,42.02
2023-05-08T20:54:04.089Z,42.47
2023-05-08T20:56:37.268Z,41.84
2023-05-08T20:59:37.074Z,42.25
2023-05-08T21:02:07.631Z,41.92
2023-05-08T21:04:44.174Z,42.05
2023-05-08T21:08:18.303Z,41.88
2023-05-08T21:11:03.988Z,42.19
2023-05-08T21:13:51.693Z,42.04
2023-05-08T21:16:26.761Z,42.10
2023-05-08T21:19:21.480Z,41.76
2023-05-08T21:21:52.318Z,41.96
2023-05-08T21:24:40.604Z,41.99
2023-05-08T21:27:18.000Z,41.98
2023-05-08T21:29:48.296Z,42.02
2023-05-08T21:32:18.321Z,42.01
2023-05-08T21:34:48.415Z,42.27
2023-05-08T21:37:18.684Z,42.10
2023-05-08T21:39:48.692Z,42.09
2023-05-08T21:42:18.724Z,41.35
2023-05-08T21:44:48.726Z,41.80
2023-05-08T21:47:18.691Z,41.38
2023-05-08T21:49:48.661Z,41.45
2023-05-08T21:52:23.434Z,41.52
2023-05-08T21:55:09.574Z,41.40
2023-05-08T21:57:48.789Z,41.28
2023-05-08T22:00:19.062Z,41.71
2023-05-08T22:02:52.002Z,41.62
2023-05-08T22:05:22.488Z,41.59
2023-05-08T22:08:30.853Z,41.98
2023-05-08T22:11:01.801Z,41.86
2023-05-08T22:13:31.959Z,41.90
2023-05-08T22:16:02.086Z,41.71
2023-05-08T22:18:32.304Z,41.93
2023-05-08T22:21:02.452Z,42.01
2023-05-08T22:23:32.520Z,41.70
2023-05-08T22:26:02.672Z,41.50
2023-05-08T22:28:32.736Z,41.63
2023-05-08T22:31:13.803Z,41.42
2023-05-08T22:33:43.829Z,41.85
2023-05-08T22:36:13.946Z,41.89
2023-05-08T22:39:02.806Z,41.82
2023-05-08T22:42:10.864Z,41.44
2023-05-08T22:44:47.409Z,41.60
2023-05-08T22:47:17.542Z,41.72
2023-05-08T22:50:46.150Z,41.81
2023-05-08T22:53:16.322Z,41.56
2023-05-08T22:55:46.537Z,41.58
2023-05-08T22:58:17.029Z,41.62
2023-05-08T23:00:56.365Z,41.77
2023-05-08T23:03:50.825Z,42.53
2023-05-08T23:06:25.636Z,43.32
2023-05-08T23:08:56.112Z,43.72
2023-05-08T23:11:27.111Z,44.20
2023-05-08T23:13:57.432Z,44.49
2023-05-08T23:16:27.994Z,44.34
2023-05-08T23:18:58.068Z,44.84
2023-05-08T23:21:29.124Z,44.89
2023-05-08T23:23:59.467Z,45.40
2023-05-08T23:26:30.057Z,45.34
2023-05-08T23:29:00.042Z,45.34
2023-05-08T23:31:45.870Z,53.60
2023-05-08T23:34:25.330Z,62.98
2023-05-08T23:36:55.438Z,65.16
2023-05-08T23:39:43.359Z,68.53
2023-05-08T23:42:22.750Z,69.79
2023-05-08T23:45:36.584Z,71.45
2023-05-08T23:48:15.717Z,72.95
2023-05-08T23:51:14.536Z,72.94
2023-05-08T23:53:44.759Z,73.35
2023-05-08T23:56:15.074Z,73.56
2023-05-08T23:59:23.741Z,75.51
